createdAt,value
2023-04-09T00:00:32.246Z,33.25
2023-04-09T00:03:20.352Z,33.26
2023-04-09T00:05:49.999Z,33.25
2023-04-09T00:08:17.966Z,33.29
2023-04-09T00:10:46.041Z,33.34
2023-04-09T00:13:14.955Z,33.24
2023-04-09T00:15:43.106Z,33.21
2023-04-09T00:18:11.807Z,33.20
2023-04-09T00:20:40.180Z,33.18
2023-04-09T00:23:08.143Z,33.01
2023-04-09T00:25:36.408Z,33.11
2023-04-09T00:28:04.499Z,33.05
2023-04-09T00:30:32.865Z,33.17
2023-04-09T00:33:01.293Z,33.07
2023-04-09T00:35:29.629Z,33.07
2023-04-09T00:37:57.694Z,33.15
2023-04-09T00:40:26.281Z,33.13
2023-04-09T00:42:54.174Z,33.02
2023-04-09T00:45:22.157Z,33.04
2023-04-09T00:47:50.656Z,33.00
2023-04-09T00:50:18.877Z,32.89
2023-04-09T00:52:46.939Z,32.87
2023-04-09T00:55:15.047Z,32.87
2023-04-09T00:57:43.292Z,32.89
2023-04-09T01:00:13.313Z,32.81
2023-04-09T01:02:41.718Z,32.79
2023-04-09T01:05:10.882Z,32.61
2023-04-09T01:08:03.438Z,32.60
2023-04-09T01:10:38.689Z,32.71
2023-04-09T01:13:18.621Z,32.64
2023-04-09T01:15:54.247Z,32.64
2023-04-09T01:18:31.059Z,32.53
2023-04-09T01:21:08.722Z,32.44
2023-04-09T01:23:48.890Z,32.56
2023-04-09T01:26:38.123Z,32.41
2023-04-09T01:29:06.229Z,32.46
2023-04-09T01:31:38.602Z,32.50
2023-04-09T01:34:06.884Z,32.43
2023-04-09T01:36:34.960Z,32.49
2023-04-09T01:39:03.331Z,32.34
2023-04-09T01:41:31.845Z,32.49
2023-04-09T01:44:01.882Z,32.45
2023-04-09T01:46:30.186Z,32.37
2023-04-09T01:48:58.383Z,32.28
2023-04-09T01:51:27.489Z,32.30
2023-04-09T01:53:55.625Z,32.31
2023-04-09T01:56:23.738Z,32.33
2023-04-09T01:58:52.896Z,32.33
2023-04-09T02:01:33.834Z,32.35
2023-04-09T02:04:03.551Z,32.34
2023-04-09T02:06:44.899Z,32.34
2023-04-09T02:09:13.073Z,32.39
2023-04-09T02:11:42.200Z,32.46
2023-04-09T02:14:11.417Z,32.35
2023-04-09T02:16:41.519Z,32.44
2023-04-09T02:19:09.652Z,32.40
2023-04-09T02:21:37.832Z,32.29
2023-04-09T02:24:06.206Z,32.21
2023-04-09T02:26:34.380Z,32.35
2023-04-09T02:29:02.460Z,32.13
2023-04-09T02:31:30.694Z,32.16
2023-04-09T02:33:59.217Z,32.20
2023-04-09T02:36:27.909Z,32.20
2023-04-09T02:38:56.593Z,32.12
2023-04-09T02:41:24.972Z,32.00
2023-04-09T02:43:53.244Z,31.98
2023-04-09T02:46:21.354Z,31.99
2023-04-09T02:48:49.909Z,32.04
2023-04-09T02:51:18.182Z,32.00
2023-04-09T02:53:46.265Z,31.94
2023-04-09T02:56:14.547Z,31.84
2023-04-09T02:58:42.703Z,31.89
2023-04-09T03:01:11.404Z,31.97
2023-04-09T03:03:42.234Z,31.86
2023-04-09T03:06:10.823Z,31.81
2023-04-09T03:08:38.881Z,31.91
2023-04-09T03:11:06.961Z,31.91
2023-04-09T03:13:35.025Z,31.75
2023-04-09T03:16:03.214Z,31.73
2023-04-09T03:18:31.278Z,31.64
2023-04-09T03:20:59.241Z,31.68
2023-04-09T03:23:28.225Z,31.74
2023-04-09T03:26:03.501Z,31.68
2023-04-09T03:28:34.610Z,31.63
2023-04-09T03:31:02.561Z,31.56
2023-04-09T03:33:31.801Z,31.67
2023-04-09T03:36:00.473Z,31.42
2023-04-09T03:38:54.737Z,31.62
2023-04-09T03:41:43.800Z,31.50
2023-04-09T03:44:15.284Z,31.53
2023-04-09T03:47:01.701Z,31.46
2023-04-09T03:49:30.055Z,31.49
2023-04-09T03:52:02.951Z,31.48
2023-04-09T03:54:37.419Z,31.52
2023-04-09T03:57:08.807Z,31.56
2023-04-09T03:59:39.066Z,31.58
2023-04-09T04:02:08.282Z,31.55
2023-04-09T04:04:38.766Z,31.60
2023-04-09T04:07:09.893Z,31.58
2023-04-09T04:09:44.021Z,31.48
2023-04-09T04:12:15.053Z,31.62
2023-04-09T04:15:02.113Z,31.60
2023-04-09T04:17:34.780Z,31.57
2023-04-09T04:20:04.258Z,31.58
2023-04-09T04:22:35.911Z,31.52
2023-04-09T04:25:05.123Z,31.49
2023-04-09T04:27:33.489Z,31.49
2023-04-09T04:30:02.488Z,31.46
2023-04-09T04:32:54.174Z,31.53
2023-04-09T04:35:22.820Z,31.55
2023-04-09T04:37:53.012Z,31.41
2023-04-09T04:40:21.503Z,31.40
2023-04-09T04:42:52.626Z,31.46
2023-04-09T04:45:20.828Z,31.37
2023-04-09T04:47:52.508Z,31.27
2023-04-09T04:50:20.682Z,31.39
2023-04-09T04:53:04.726Z,31.09
2023-04-09T04:55:36.977Z,31.16
2023-04-09T04:58:05.781Z,31.19
2023-04-09T05:00:40.881Z,31.02
2023-04-09T05:03:09.247Z,31.04
2023-04-09T05:05:53.415Z,30.92
2023-04-09T05:08:22.105Z,30.93
2023-04-09T05:10:51.719Z,31.04
2023-04-09T05:13:20.708Z,30.85
2023-04-09T05:15:48.776Z,30.94
2023-04-09T05:18:17.174Z,30.89
2023-04-09T05:20:45.948Z,30.83
2023-04-09T05:23:14.118Z,30.80
2023-04-09T05:25:44.534Z,30.86
2023-04-09T05:28:25.005Z,30.65
2023-04-09T05:30:58.748Z,30.72
2023-04-09T05:33:26.980Z,30.63
2023-04-09T05:35:56.749Z,30.60
2023-04-09T05:38:24.973Z,30.68
2023-04-09T05:40:57.648Z,30.59
2023-04-09T05:43:25.720Z,30.59
2023-04-09T05:45:54.029Z,30.58
2023-04-09T05:48:22.207Z,30.53
2023-04-09T05:50:55.989Z,30.91
2023-04-09T05:53:26.706Z,31.48
2023-04-09T05:55:54.621Z,31.50
2023-04-09T05:58:25.401Z,31.35
2023-04-09T06:00:53.700Z,31.27
2023-04-09T06:03:21.885Z,31.11
2023-04-09T06:05:49.945Z,31.27
2023-04-09T06:08:18.119Z,31.38
2023-04-09T06:10:46.084Z,31.26
2023-04-09T06:13:14.374Z,31.22
2023-04-09T06:15:42.965Z,31.18
2023-04-09T06:18:11.239Z,31.18
2023-04-09T06:20:39.302Z,31.06
2023-04-09T06:23:08.923Z,31.08
2023-04-09T06:25:37.090Z,31.11
2023-04-09T06:28:05.583Z,30.84
2023-04-09T06:30:33.740Z,30.93
2023-04-09T06:33:01.648Z,30.89
2023-04-09T06:35:29.872Z,30.77
2023-04-09T06:37:57.858Z,30.75
2023-04-09T06:40:25.919Z,30.62
2023-04-09T06:42:53.902Z,30.51
2023-04-09T06:45:25.540Z,30.51
2023-04-09T06:47:53.589Z,30.45
2023-04-09T06:50:21.794Z,30.38
2023-04-09T06:52:49.718Z,30.37
2023-04-09T06:55:17.940Z,30.25
2023-04-09T06:57:46.015Z,30.42
2023-04-09T07:00:14.691Z,30.28
2023-04-09T07:02:43.029Z,30.18
2023-04-09T07:05:12.061Z,30.22
2023-04-09T07:07:40.347Z,30.19
2023-04-09T07:10:09.010Z,30.18
2023-04-09T07:12:37.111Z,30.19
2023-04-09T07:15:06.428Z,30.20
2023-04-09T07:17:34.962Z,30.13
2023-04-09T07:20:03.669Z,30.15
2023-04-09T07:22:31.633Z,30.24
2023-04-09T07:24:59.620Z,30.17
2023-04-09T07:27:27.816Z,30.14
2023-04-09T07:29:57.036Z,30.13
2023-04-09T07:32:27.054Z,30.14
2023-04-09T07:34:55.542Z,30.06
2023-04-09T07:37:23.650Z,30.05
2023-04-09T07:39:52.447Z,30.10
2023-04-09T07:42:20.606Z,30.20
2023-04-09T07:44:48.795Z,30.12
2023-04-09T07:47:16.880Z,30.10
2023-04-09T07:49:45.029Z,29.91
2023-04-09T07:52:13.104Z,30.10
2023-04-09T07:54:41.335Z,30.07
2023-04-09T07:57:09.347Z,30.13
2023-04-09T07:59:37.597Z,30.06
2023-04-09T08:02:06.272Z,29.94
2023-04-09T08:04:34.766Z,29.94
2023-04-09T08:07:02.988Z,29.81
2023-04-09T08:09:30.942Z,29.86
2023-04-09T08:11:58.933Z,29.85
2023-04-09T08:14:26.982Z,29.94
2023-04-09T08:16:55.257Z,29.91
2023-04-09T08:19:23.736Z,29.75
2023-04-09T08:21:52.613Z,29.82
2023-04-09T08:24:20.709Z,29.85
2023-04-09T08:26:48.775Z,29.83
2023-04-09T08:29:17.054Z,29.70
2023-04-09T08:31:45.590Z,29.69
2023-04-09T08:34:16.258Z,29.59
2023-04-09T08:36:47.885Z,29.70
2023-04-09T08:39:16.915Z,29.50
2023-04-09T08:41:45.188Z,29.55
2023-04-09T08:44:13.452Z,29.50
2023-04-09T08:46:42.158Z,29.50
2023-04-09T08:49:11.148Z,29.57
2023-04-09T08:51:40.544Z,29.39
2023-04-09T08:54:08.738Z,29.39
2023-04-09T08:56:36.893Z,29.36
2023-04-09T08:59:05.683Z,29.31
2023-04-09T09:01:33.906Z,29.31
2023-04-09T09:04:04.541Z,29.11
2023-04-09T09:06:37.227Z,29.24
2023-04-09T09:09:09.750Z,29.13
2023-04-09T09:11:48.720Z,29.39
2023-04-09T09:14:17.982Z,29.23
2023-04-09T09:16:58.341Z,29.17
2023-04-09T09:19:26.719Z,29.15
2023-04-09T09:21:59.294Z,29.00
2023-04-09T09:24:27.458Z,28.86
2023-04-09T09:26:55.990Z,28.90
2023-04-09T09:29:23.920Z,28.81
2023-04-09T09:31:55.676Z,29.01
2023-04-09T09:34:24.767Z,28.91
2023-04-09T09:36:53.058Z,28.76
2023-04-09T09:39:22.402Z,28.73
2023-04-09T09:41:51.042Z,28.70
2023-04-09T09:44:32.571Z,28.88
2023-04-09T09:47:00.798Z,28.77
2023-04-09T09:49:28.972Z,28.64
2023-04-09T09:51:58.121Z,28.85
2023-04-09T09:54:26.508Z,28.58
2023-04-09T09:56:56.094Z,28.65
2023-04-09T09:59:24.301Z,28.60
2023-04-09T10:01:57.646Z,28.78
2023-04-09T10:04:26.913Z,28.51
2023-04-09T10:06:55.209Z,28.50
2023-04-09T10:09:24.396Z,28.55
2023-04-09T10:11:52.473Z,28.67
2023-04-09T10:14:20.756Z,28.59
2023-04-09T10:16:48.821Z,28.66
2023-04-09T10:19:17.306Z,28.48
2023-04-09T10:22:04.495Z,28.58
2023-04-09T10:24:34.251Z,28.46
2023-04-09T10:27:18.492Z,28.80
2023-04-09T10:29:47.791Z,28.83
2023-04-09T10:32:23.899Z,28.94
2023-04-09T10:34:52.237Z,29.04
2023-04-09T10:37:25.373Z,29.16
2023-04-09T10:39:53.572Z,29.59
2023-04-09T10:42:27.483Z,29.52
2023-04-09T10:45:08.168Z,29.29
2023-04-09T10:47:37.916Z,29.45
2023-04-09T10:50:18.761Z,29.49
2023-04-09T10:52:47.465Z,29.38
2023-04-09T10:55:38.514Z,29.56
2023-04-09T10:58:13.146Z,29.56
2023-04-09T11:00:43.446Z,29.77
2023-04-09T11:03:36.259Z,29.68
2023-04-09T11:06:10.306Z,29.72
2023-04-09T11:08:39.173Z,29.88
2023-04-09T11:11:07.264Z,29.76
2023-04-09T11:13:35.508Z,29.94
2023-04-09T11:16:07.117Z,30.04
2023-04-09T11:18:37.487Z,30.08
2023-04-09T11:21:06.050Z,30.30
2023-04-09T11:23:34.234Z,26.38
2023-04-09T11:26:02.961Z,24.85
2023-04-09T11:28:31.109Z,24.74
2023-04-09T11:30:59.165Z,25.19
2023-04-09T11:33:34.546Z,25.82
2023-04-09T11:36:05.712Z,26.42
2023-04-09T11:38:34.038Z,26.82
2023-04-09T11:41:02.334Z,27.41
2023-04-09T11:43:30.482Z,27.79
2023-04-09T11:45:58.419Z,28.19
2023-04-09T11:48:26.842Z,28.47
2023-04-09T11:50:55.006Z,29.02
2023-04-09T11:53:23.901Z,28.91
2023-04-09T11:55:52.688Z,29.30
2023-04-09T11:58:25.693Z,29.87
2023-04-09T12:00:55.723Z,29.88
2023-04-09T12:03:33.689Z,30.05
2023-04-09T12:06:03.235Z,29.81
2023-04-09T12:08:32.095Z,30.06
2023-04-09T12:11:09.159Z,30.11
2023-04-09T12:13:37.147Z,30.21
2023-04-09T12:16:05.483Z,30.09
2023-04-09T12:18:36.772Z,29.89
2023-04-09T12:21:05.254Z,30.04
2023-04-09T12:23:33.648Z,29.53
2023-04-09T12:26:02.414Z,29.95
2023-04-09T12:28:31.111Z,30.39
2023-04-09T12:30:59.758Z,31.01
2023-04-09T12:33:28.076Z,31.14
2023-04-09T12:35:58.577Z,31.22
2023-04-09T12:38:26.981Z,31.53
2023-04-09T12:40:55.048Z,31.78
2023-04-09T12:43:23.128Z,32.62
2023-04-09T12:45:52.996Z,32.78
2023-04-09T12:48:21.315Z,32.68
2023-04-09T12:50:49.374Z,32.46
2023-04-09T12:53:17.353Z,32.35
2023-04-09T12:55:45.733Z,32.38
2023-04-09T12:58:13.629Z,32.36
2023-04-09T13:00:41.867Z,32.45
2023-04-09T13:03:10.246Z,32.53
2023-04-09T13:05:38.531Z,32.58
2023-04-09T13:08:07.017Z,32.84
2023-04-09T13:10:35.289Z,33.54
2023-04-09T13:13:03.677Z,34.78
2023-04-09T13:15:31.790Z,35.44
2023-04-09T13:18:00.161Z,35.32
2023-04-09T13:20:28.390Z,35.11
2023-04-09T13:22:57.091Z,34.10
2023-04-09T13:25:25.166Z,34.07
2023-04-09T13:27:53.650Z,34.68
2023-04-09T13:30:22.633Z,35.49
2023-04-09T13:32:50.624Z,35.59
2023-04-09T13:35:19.408Z,35.25
2023-04-09T13:37:47.602Z,34.65
2023-04-09T13:40:16.775Z,34.44
2023-04-09T13:42:45.153Z,34.35
2023-04-09T13:45:13.517Z,33.87
2023-04-09T13:47:42.969Z,33.39
2023-04-09T13:50:12.021Z,33.37
2023-04-09T13:52:40.192Z,33.43
2023-04-09T13:55:09.401Z,33.34
2023-04-09T13:57:37.446Z,33.16
2023-04-09T14:00:06.979Z,33.06
2023-04-09T14:02:35.084Z,33.01
2023-04-09T14:05:04.022Z,32.87
2023-04-09T14:07:32.526Z,32.70
2023-04-09T14:10:00.608Z,32.62
2023-04-09T14:12:28.664Z,32.39
2023-04-09T14:14:56.732Z,32.27
2023-04-09T14:17:24.821Z,32.23
2023-04-09T14:19:52.777Z,32.20
2023-04-09T14:22:20.838Z,32.01
2023-04-09T14:24:49.036Z,32.24
2023-04-09T14:27:17.384Z,32.08
2023-04-09T14:29:45.557Z,31.83
2023-04-09T14:32:13.729Z,31.75
2023-04-09T14:34:41.892Z,31.51
2023-04-09T14:37:09.881Z,31.38
2023-04-09T14:39:37.962Z,31.14
2023-04-09T14:42:06.224Z,31.20
2023-04-09T14:44:34.605Z,31.14
2023-04-09T14:47:02.957Z,31.30
2023-04-09T14:51:56.748Z,30.61
2023-04-09T14:54:24.891Z,28.44
2023-04-09T14:56:52.837Z,27.69
2023-04-09T14:59:20.927Z,27.83
2023-04-09T15:01:49.111Z,27.77
2023-04-09T15:04:17.585Z,27.68
2023-04-09T15:06:45.847Z,27.75
2023-04-09T15:09:14.393Z,27.75
2023-04-09T15:11:42.382Z,27.80
2023-04-09T15:14:10.558Z,28.07
2023-04-09T15:16:38.595Z,27.90
2023-04-09T15:19:07.631Z,28.10
2023-04-09T15:21:35.805Z,28.25
2023-04-09T15:24:04.017Z,28.80
2023-04-09T15:26:34.196Z,29.20
2023-04-09T15:29:04.264Z,29.30
2023-04-09T15:31:35.575Z,29.35
2023-04-09T15:34:03.848Z,29.80
2023-04-09T15:36:32.618Z,30.05
2023-04-09T15:39:02.776Z,30.40
2023-04-09T15:41:32.438Z,30.69
2023-04-09T15:44:00.619Z,30.89
2023-04-09T15:46:28.692Z,31.32
2023-04-09T15:48:56.760Z,31.44
2023-04-09T15:51:25.060Z,31.74
2023-04-09T15:53:53.385Z,31.90
2023-04-09T15:56:21.801Z,32.10
2023-04-09T15:58:49.903Z,32.43
2023-04-09T16:01:18.068Z,32.51
2023-04-09T16:03:52.018Z,32.71
2023-04-09T16:06:20.342Z,32.94
2023-04-09T16:08:48.294Z,32.99
2023-04-09T16:11:16.300Z,33.27
2023-04-09T16:13:44.570Z,33.53
2023-04-09T16:16:12.794Z,33.63
2023-04-09T16:18:40.912Z,33.84
2023-04-09T16:21:08.989Z,34.04
2023-04-09T16:23:37.157Z,34.08
2023-04-09T16:26:06.029Z,34.15
2023-04-09T16:28:33.986Z,34.32
2023-04-09T16:31:02.016Z,34.50
2023-04-09T16:33:30.459Z,34.69
2023-04-09T16:35:58.658Z,34.71
2023-04-09T16:38:27.826Z,34.87
2023-04-09T16:40:56.546Z,34.92
2023-04-09T16:43:25.578Z,35.06
2023-04-09T16:45:53.755Z,35.14
2023-04-09T16:48:22.065Z,35.32
2023-04-09T16:50:50.310Z,35.30
2023-04-09T16:53:18.308Z,35.39
2023-04-09T16:55:46.209Z,35.57
2023-04-09T16:58:14.242Z,35.93
2023-04-09T17:00:44.190Z,36.29
2023-04-09T17:03:14.267Z,36.18
2023-04-09T17:05:49.300Z,36.50
2023-04-09T17:08:18.233Z,36.95
2023-04-09T17:10:46.380Z,37.35
2023-04-09T17:13:14.503Z,37.62
2023-04-09T17:15:42.934Z,38.04
2023-04-09T17:18:11.211Z,38.20
2023-04-09T17:20:39.520Z,38.31
2023-04-09T17:23:07.674Z,38.61
2023-04-09T17:25:35.809Z,38.83
2023-04-09T17:28:05.145Z,38.98
2023-04-09T17:30:33.521Z,39.02
2023-04-09T17:33:02.096Z,39.28
2023-04-09T17:35:30.500Z,39.65
2023-04-09T17:37:58.858Z,39.67
2023-04-09T17:40:27.867Z,39.58
2023-04-09T17:42:56.234Z,39.77
2023-04-09T17:45:24.418Z,39.95
2023-04-09T17:47:52.867Z,40.09
2023-04-09T17:50:21.581Z,40.22
2023-04-09T17:52:50.771Z,40.20
2023-04-09T17:55:19.560Z,40.22
2023-04-09T17:57:47.835Z,40.22
2023-04-09T18:00:16.776Z,40.08
2023-04-09T18:02:47.928Z,40.20
2023-04-09T18:05:16.539Z,40.26
2023-04-09T18:07:45.041Z,40.34
2023-04-09T18:10:13.119Z,40.40
2023-04-09T18:12:41.395Z,40.56
2023-04-09T18:15:10.099Z,40.60
2023-04-09T18:17:38.201Z,40.74
2023-04-09T18:20:07.041Z,40.98
2023-04-09T18:22:35.522Z,41.09
2023-04-09T18:25:04.328Z,41.15
2023-04-09T18:27:32.603Z,41.43
2023-04-09T18:30:00.660Z,41.73
2023-04-09T18:32:29.295Z,41.68
2023-04-09T18:34:57.358Z,41.77
2023-04-09T18:37:25.483Z,42.02
2023-04-09T18:39:54.681Z,42.22
2023-04-09T18:42:22.761Z,42.38
2023-04-09T18:44:50.835Z,42.80
2023-04-09T18:47:18.834Z,43.14
2023-04-09T18:49:47.576Z,43.14
2023-04-09T18:52:15.976Z,43.35
2023-04-09T18:54:44.037Z,43.46
2023-04-09T18:57:12.308Z,43.57
2023-04-09T18:59:41.406Z,43.63
2023-04-09T19:02:09.519Z,43.52
2023-04-09T19:04:40.178Z,43.60
2023-04-09T19:07:08.496Z,43.82
2023-04-09T19:09:37.619Z,43.82
2023-04-09T19:12:06.174Z,43.83
2023-04-09T19:14:36.610Z,43.72
2023-04-09T19:17:05.004Z,43.76
2023-04-09T19:19:33.246Z,43.47
2023-04-09T19:22:01.882Z,43.49
2023-04-09T19:24:30.030Z,43.54
2023-04-09T19:26:59.927Z,43.76
2023-04-09T19:29:28.008Z,43.52
2023-04-09T19:31:56.156Z,43.09
2023-04-09T19:34:24.460Z,42.65
2023-04-09T19:36:52.531Z,42.47
2023-04-09T19:39:20.411Z,42.29
2023-04-09T19:41:48.451Z,41.95
2023-04-09T19:44:16.637Z,41.79
2023-04-09T19:46:45.254Z,41.39
2023-04-09T19:49:14.009Z,41.28
2023-04-09T19:51:42.071Z,41.06
2023-04-09T19:54:10.980Z,40.94
2023-04-09T19:56:39.039Z,40.62
2023-04-09T19:59:07.529Z,40.53
2023-04-09T20:01:36.320Z,40.32
2023-04-09T20:04:05.507Z,40.24
2023-04-09T20:06:33.787Z,40.10
2023-04-09T20:09:02.157Z,39.99
2023-04-09T20:11:30.143Z,39.87
2023-04-09T20:14:01.428Z,39.57
2023-04-09T20:16:29.628Z,39.50
2023-04-09T20:18:57.673Z,39.39
2023-04-09T20:21:25.720Z,39.23
2023-04-09T20:23:54.073Z,39.06
2023-04-09T20:26:22.190Z,38.95
2023-04-09T20:28:50.868Z,38.85
2023-04-09T20:31:19.126Z,38.61
2023-04-09T20:33:47.386Z,38.58
2023-04-09T20:36:16.985Z,38.53
2023-04-09T20:38:45.478Z,38.26
2023-04-09T20:41:13.528Z,38.23
2023-04-09T20:43:41.518Z,38.11
2023-04-09T20:46:10.001Z,38.04
2023-04-09T20:48:38.174Z,37.97
2023-04-09T20:51:10.342Z,37.81
2023-04-09T20:53:38.866Z,37.63
2023-04-09T20:56:08.841Z,37.65
2023-04-09T20:58:37.014Z,37.65
2023-04-09T21:01:07.369Z,37.47
2023-04-09T21:03:36.910Z,37.37
2023-04-09T21:06:06.020Z,37.31
2023-04-09T21:08:34.229Z,37.17
2023-04-09T21:11:03.110Z,37.04
2023-04-09T21:13:40.438Z,37.08
2023-04-09T21:16:15.465Z,36.96
2023-04-09T21:18:43.603Z,36.83
2023-04-09T21:21:11.716Z,36.91
2023-04-09T21:23:39.667Z,36.74
2023-04-09T21:26:09.070Z,36.67
2023-04-09T21:28:37.216Z,36.61
2023-04-09T21:31:06.153Z,36.61
2023-04-09T21:33:34.307Z,36.55
2023-04-09T21:36:04.446Z,36.54
2023-04-09T21:38:32.701Z,36.45
2023-04-09T21:41:01.826Z,36.46
2023-04-09T21:43:30.579Z,36.36
2023-04-09T21:45:58.581Z,36.36
2023-04-09T21:48:26.775Z,36.27
2023-04-09T21:50:54.795Z,36.24
2023-04-09T21:53:22.979Z,36.14
2023-04-09T21:55:51.552Z,36.20
2023-04-09T21:58:19.721Z,36.10
2023-04-09T22:00:48.348Z,36.08
2023-04-09T22:03:16.710Z,36.01
2023-04-09T22:05:45.290Z,36.09
2023-04-09T22:08:13.753Z,35.92
2023-04-09T22:10:41.825Z,35.99
2023-04-09T22:13:10.412Z,35.97
2023-04-09T22:15:38.669Z,35.88
2023-04-09T22:18:06.965Z,35.84
2023-04-09T22:20:35.911Z,35.82
2023-04-09T22:23:04.130Z,35.68
2023-04-09T22:25:35.236Z,35.71
2023-04-09T22:28:05.862Z,35.74
2023-04-09T22:30:33.989Z,35.82
2023-04-09T22:33:02.631Z,35.75
2023-04-09T22:35:32.603Z,35.69
2023-04-09T22:38:00.769Z,35.56
2023-04-09T22:40:28.730Z,35.69
2023-04-09T22:42:56.790Z,35.59
2023-04-09T22:45:27.825Z,35.59
2023-04-09T22:47:57.204Z,35.63
2023-04-09T22:50:28.921Z,35.59
2023-04-09T22:52:56.892Z,35.52
2023-04-09T22:55:25.153Z,35.58
2023-04-09T22:57:54.960Z,35.50
2023-04-09T23:00:23.585Z,35.52
2023-04-09T23:02:52.012Z,35.57
2023-04-09T23:05:20.499Z,35.60
2023-04-09T23:07:48.691Z,35.59
2023-04-09T23:10:17.682Z,35.52
2023-04-09T23:12:45.860Z,35.44
2023-04-09T23:15:13.922Z,35.57
2023-04-09T23:17:42.655Z,35.54
2023-04-09T23:20:15.204Z,35.50
2023-04-09T23:22:46.226Z,35.60
2023-04-09T23:25:17.773Z,35.65
2023-04-09T23:27:46.958Z,35.61
2023-04-09T23:30:18.405Z,35.54
2023-04-09T23:32:46.544Z,35.51
2023-04-09T23:35:14.969Z,35.54
2023-04-09T23:37:43.248Z,35.48
2023-04-09T23:40:11.944Z,35.52
2023-04-09T23:42:40.108Z,35.50
2023-04-09T23:45:08.795Z,35.43
2023-04-09T23:47:37.542Z,35.53
2023-04-09T23:50:07.397Z,35.52
2023-04-09T23:52:38.909Z,35.45
2023-04-09T23:55:09.008Z,35.54
2023-04-09T23:57:37.961Z,35.52
